createdAt,value
2017-09-11T00:01:06.892Z,63.30
2017-09-11T00:03:35.259Z,63.80
2017-09-11T00:06:03.687Z,63.50
2017-09-11T00:08:31.293Z,63.60
2017-09-11T00:10:59.717Z,63.90
2017-09-11T00:13:27.320Z,64.40
2017-09-11T00:15:54.936Z,64.40
2017-09-11T00:18:22.524Z,64.30
2017-09-11T00:20:50.169Z,64.00
2017-09-11T00:23:17.789Z,63.70
2017-09-11T00:25:46.167Z,64.00
2017-09-11T00:28:13.773Z,63.90
2017-09-11T00:30:41.410Z,63.80
2017-09-11T00:33:09.029Z,63.60
2017-09-11T00:35:36.640Z,63.40
2017-09-11T00:38:04.251Z,63.50
2017-09-11T00:40:31.896Z,63.40
2017-09-11T00:42:59.494Z,64.10
2017-09-11T00:45:27.122Z,63.40
2017-09-11T00:47:54.737Z,63.60
2017-09-11T00:50:22.328Z,64.30
2017-09-11T00:52:49.939Z,64.40
2017-09-11T00:55:18.296Z,64.60
2017-09-11T00:57:45.921Z,64.60
2017-09-11T01:00:13.520Z,64.60
2017-09-11T01:02:41.919Z,63.90
2017-09-11T01:05:10.280Z,63.80
2017-09-11T01:07:38.670Z,63.60
2017-09-11T01:10:07.027Z,63.50
2017-09-11T01:12:34.657Z,63.50
2017-09-11T01:15:02.254Z,63.90
2017-09-11T01:17:29.894Z,63.90
2017-09-11T01:19:57.492Z,63.70
2017-09-11T01:22:25.889Z,62.70
2017-09-11T01:24:53.478Z,63.10
2017-09-11T01:27:21.828Z,63.90
2017-09-11T01:29:49.421Z,64.20
2017-09-11T01:32:17.045Z,63.90
2017-09-11T01:34:44.644Z,64.00
2017-09-11T01:37:12.280Z,63.40
2017-09-11T01:39:39.901Z,63.80
2017-09-11T01:42:07.487Z,64.30
2017-09-11T01:44:35.872Z,64.30
2017-09-11T01:47:03.463Z,64.20
2017-09-11T01:49:31.077Z,64.40
2017-09-11T01:51:58.680Z,64.10
2017-09-11T01:54:26.313Z,64.40
2017-09-11T01:56:53.916Z,65.40
2017-09-11T01:59:21.528Z,65.30
2017-09-11T02:01:49.888Z,64.20
2017-09-11T02:04:18.281Z,64.70
2017-09-11T02:06:46.665Z,65.20
2017-09-11T02:09:15.044Z,65.10
2017-09-11T02:11:43.487Z,64.90
2017-09-11T02:14:11.100Z,64.90
2017-09-11T02:16:38.716Z,65.30
2017-09-11T02:19:06.433Z,65.30
2017-09-11T02:21:34.014Z,65.30
2017-09-11T02:24:02.995Z,64.70
2017-09-11T02:26:30.586Z,64.90
2017-09-11T02:28:58.222Z,65.20
2017-09-11T02:31:25.827Z,64.60
2017-09-11T02:33:54.223Z,65.30
2017-09-11T02:36:22.640Z,64.70
2017-09-11T02:38:50.229Z,64.70
2017-09-11T02:41:18.646Z,64.90
2017-09-11T02:43:46.676Z,64.90
2017-09-11T02:46:14.332Z,65.20
2017-09-11T02:48:41.945Z,65.00
2017-09-11T02:51:09.569Z,64.90
2017-09-11T02:53:37.156Z,65.20
2017-09-11T02:56:04.776Z,65.40
2017-09-11T02:58:32.378Z,65.40
2017-09-11T03:01:00.001Z,65.40
2017-09-11T03:03:27.583Z,65.20
2017-09-11T03:05:55.233Z,65.00
2017-09-11T03:08:22.841Z,65.20
2017-09-11T03:10:50.460Z,65.10
2017-09-11T03:13:18.811Z,63.90
2017-09-11T03:15:46.419Z,64.50
2017-09-11T03:18:14.045Z,64.50
2017-09-11T03:20:41.660Z,64.70
2017-09-11T03:23:09.261Z,64.10
2017-09-11T03:25:36.898Z,64.60
2017-09-11T03:28:04.484Z,64.20
2017-09-11T03:30:32.126Z,64.50
2017-09-11T03:32:59.714Z,64.20
2017-09-11T03:35:27.310Z,64.30
2017-09-11T03:37:54.935Z,64.40
2017-09-11T03:40:22.522Z,64.50
2017-09-11T03:42:50.917Z,64.40
2017-09-11T03:45:18.508Z,64.20
2017-09-11T03:47:46.126Z,64.70
2017-09-11T03:50:13.739Z,64.50
2017-09-11T03:52:42.145Z,65.20
2017-09-11T03:55:10.516Z,65.00
2017-09-11T03:57:38.169Z,65.00
2017-09-11T04:00:05.768Z,65.20
2017-09-11T04:02:33.396Z,65.20
2017-09-11T04:05:00.991Z,65.40
2017-09-11T04:07:28.622Z,65.40
2017-09-11T04:09:56.985Z,66.30
2017-09-11T04:12:24.622Z,65.40
2017-09-11T04:14:53.575Z,64.70
2017-09-11T04:17:21.958Z,65.30
2017-09-11T04:19:49.579Z,65.20
2017-09-11T04:22:17.179Z,64.90
2017-09-11T04:24:44.785Z,65.40
2017-09-11T04:27:12.420Z,64.90
2017-09-11T04:29:40.500Z,64.80
2017-09-11T04:32:08.091Z,64.50
2017-09-11T04:34:35.709Z,64.40
2017-09-11T04:37:03.318Z,64.70
2017-09-11T04:39:30.941Z,64.50
2017-09-11T04:41:58.540Z,64.90
2017-09-11T04:44:26.946Z,65.70
2017-09-11T04:46:55.770Z,64.90
2017-09-11T04:49:23.388Z,64.90
2017-09-11T04:51:51.767Z,66.90
2017-09-11T04:54:20.162Z,67.50
2017-09-11T04:56:48.534Z,67.50
2017-09-11T04:59:18.007Z,68.40
2017-09-11T05:01:45.601Z,68.40
2017-09-11T05:04:13.975Z,68.20
2017-09-11T05:06:42.343Z,67.80
2017-09-11T05:09:10.776Z,68.00
2017-09-11T05:11:38.373Z,68.00
2017-09-11T05:14:05.996Z,67.60
2017-09-11T05:16:33.610Z,67.70
2017-09-11T05:19:02.512Z,67.40
2017-09-11T05:21:30.873Z,68.20
2017-09-11T05:23:59.232Z,68.00
2017-09-11T05:26:26.860Z,67.90
2017-09-11T05:28:54.515Z,67.60
2017-09-11T05:31:22.137Z,67.80
2017-09-11T05:33:49.760Z,67.40
2017-09-11T05:36:17.377Z,68.80
2017-09-11T05:38:45.768Z,67.60
2017-09-11T05:41:13.390Z,67.60
2017-09-11T05:43:40.983Z,67.50
2017-09-11T05:46:09.359Z,67.40
2017-09-11T05:48:36.960Z,67.40
2017-09-11T05:51:04.601Z,69.00
2017-09-11T05:53:32.253Z,68.50
2017-09-11T05:55:59.875Z,68.10
2017-09-11T05:58:28.300Z,68.20
2017-09-11T06:00:55.919Z,68.10
2017-09-11T06:03:23.511Z,68.80
2017-09-11T06:05:51.906Z,68.80
2017-09-11T06:08:19.509Z,68.80
2017-09-11T06:10:47.119Z,70.00
2017-09-11T06:13:14.727Z,70.00
2017-09-11T06:15:43.115Z,71.70
2017-09-11T06:18:10.721Z,71.70
2017-09-11T06:20:38.320Z,72.70
2017-09-11T06:23:06.049Z,73.10
2017-09-11T06:25:33.648Z,73.20
2017-09-11T06:28:01.282Z,73.10
2017-09-11T06:30:28.908Z,74.10
2017-09-11T06:32:56.529Z,74.40
2017-09-11T06:35:27.342Z,74.40
2017-09-11T06:37:54.974Z,74.20
2017-09-11T06:40:23.333Z,76.20
2017-09-11T06:42:50.939Z,76.00
2017-09-11T06:45:18.528Z,75.70
2017-09-11T06:47:46.173Z,74.90
2017-09-11T06:50:13.795Z,75.70
2017-09-11T06:52:42.700Z,76.30
2017-09-11T06:55:11.087Z,75.70
2017-09-11T06:57:38.706Z,75.70
2017-09-11T07:00:06.360Z,76.10
2017-09-11T07:02:33.974Z,75.70
2017-09-11T07:05:02.196Z,76.70
2017-09-11T07:07:29.811Z,76.10
2017-09-11T07:09:58.687Z,75.70
2017-09-11T07:12:38.327Z,75.70
2017-09-11T07:15:06.698Z,75.20
2017-09-11T07:17:34.377Z,75.20
2017-09-11T07:20:02.753Z,75.30
2017-09-11T07:22:31.134Z,75.00
2017-09-11T07:24:59.517Z,74.60
2017-09-11T07:27:27.142Z,74.60
2017-09-11T07:29:54.752Z,75.20
2017-09-11T07:32:22.340Z,74.90
2017-09-11T07:34:49.960Z,74.90
2017-09-11T07:37:17.570Z,75.00
2017-09-11T07:39:45.185Z,75.60
2017-09-11T07:42:12.785Z,75.00
2017-09-11T07:44:40.414Z,74.70
2017-09-11T07:47:08.015Z,73.90
2017-09-11T07:49:35.632Z,74.20
2017-09-11T07:52:03.262Z,74.00
2017-09-11T07:54:31.652Z,75.00
2017-09-11T07:57:00.035Z,73.00
2017-09-11T07:59:28.421Z,74.30
2017-09-11T08:01:56.039Z,74.30
2017-09-11T08:04:23.660Z,73.90
2017-09-11T08:06:51.274Z,72.70
2017-09-11T08:09:18.916Z,72.70
2017-09-11T08:11:46.594Z,72.20
2017-09-11T08:14:14.211Z,71.90
2017-09-11T08:16:41.809Z,71.90
2017-09-11T08:19:09.429Z,72.00
2017-09-11T08:21:37.029Z,72.10
2017-09-11T08:24:04.641Z,72.50
2017-09-11T08:26:32.276Z,71.90
2017-09-11T08:29:00.641Z,72.10
2017-09-11T08:31:28.263Z,72.00
2017-09-11T08:33:55.860Z,72.40
2017-09-11T08:36:23.528Z,71.70
2017-09-11T08:38:51.128Z,72.00
2017-09-11T08:41:18.771Z,70.70
2017-09-11T08:43:47.152Z,70.40
2017-09-11T08:46:15.550Z,71.10
2017-09-11T08:48:43.147Z,71.10
2017-09-11T08:51:10.789Z,71.70
2017-09-11T08:53:38.379Z,71.70
2017-09-11T08:58:40.076Z,71.40
2017-09-11T09:01:07.699Z,70.80
2017-09-11T09:03:35.305Z,71.60
2017-09-11T09:06:03.696Z,71.20
2017-09-11T09:08:31.288Z,71.20
2017-09-11T09:10:58.918Z,71.10
2017-09-11T09:13:26.510Z,70.30
2017-09-11T09:15:54.139Z,70.30
2017-09-11T09:18:21.773Z,71.00
2017-09-11T09:20:50.145Z,69.60
2017-09-11T09:23:17.776Z,69.60
2017-09-11T09:25:47.660Z,69.00
2017-09-11T09:28:16.431Z,70.00
2017-09-11T09:30:51.213Z,71.70
2017-09-11T09:33:19.248Z,71.70
2017-09-11T09:35:46.853Z,70.40
2017-09-11T09:38:14.464Z,70.00
2017-09-11T09:40:42.091Z,71.10
2017-09-11T09:43:09.709Z,69.80
2017-09-11T09:45:37.345Z,70.20
2017-09-11T09:48:05.739Z,71.20
2017-09-11T09:50:33.337Z,71.20
2017-09-11T09:53:00.957Z,70.30
2017-09-11T09:55:28.737Z,70.50
2017-09-11T09:57:56.347Z,71.40
2017-09-11T10:00:23.935Z,71.70
2017-09-11T10:02:51.566Z,72.60
2017-09-11T10:05:19.944Z,73.60
2017-09-11T10:07:47.560Z,73.60
2017-09-11T10:10:15.168Z,74.10
2017-09-11T10:12:42.820Z,74.30
2017-09-11T10:15:11.200Z,73.70
2017-09-11T10:18:07.987Z,73.60
2017-09-11T10:20:35.645Z,73.80
2017-09-11T10:23:03.240Z,71.60
2017-09-11T10:25:30.868Z,71.90
2017-09-11T10:27:58.474Z,73.30
2017-09-11T10:30:26.144Z,73.30
2017-09-11T10:32:53.777Z,73.60
2017-09-11T10:35:21.416Z,72.30
2017-09-11T10:37:49.025Z,72.20
2017-09-11T10:40:16.657Z,73.20
2017-09-11T10:42:44.285Z,72.10
2017-09-11T10:45:12.669Z,71.10
2017-09-11T10:47:41.027Z,70.50
2017-09-11T10:50:08.694Z,70.40
2017-09-11T10:52:36.307Z,69.30
2017-09-11T10:55:03.958Z,68.20
2017-09-11T10:57:31.574Z,68.50
2017-09-11T10:59:59.979Z,68.70
2017-09-11T11:02:27.577Z,68.50
2017-09-11T11:04:55.198Z,67.20
2017-09-11T11:07:22.839Z,65.70
2017-09-11T11:09:51.188Z,65.40
2017-09-11T11:12:19.269Z,66.00
2017-09-11T11:14:46.864Z,66.70
2017-09-11T11:17:15.263Z,65.50
2017-09-11T11:19:42.905Z,65.40
2017-09-11T11:22:11.300Z,66.80
2017-09-11T11:24:38.885Z,66.70
2017-09-11T11:27:06.509Z,67.10
2017-09-11T11:29:34.130Z,66.90
2017-09-11T11:32:01.760Z,67.20
2017-09-11T11:34:30.216Z,66.00
2017-09-11T11:36:57.836Z,66.80
2017-09-11T11:39:25.442Z,65.50
2017-09-11T11:41:53.078Z,65.70
2017-09-11T11:44:21.452Z,68.00
2017-09-11T11:46:49.083Z,67.90
2017-09-11T11:49:16.682Z,66.50
2017-09-11T11:51:45.065Z,67.00
2017-09-11T11:54:12.671Z,66.90
2017-09-11T11:56:40.285Z,66.10
2017-09-11T11:59:08.665Z,66.10
2017-09-11T12:01:41.033Z,66.90
2017-09-11T12:04:09.520Z,67.30
2017-09-11T12:06:37.882Z,66.90
2017-09-11T12:09:06.300Z,66.40
2017-09-11T12:11:33.900Z,66.40
2017-09-11T12:14:01.528Z,68.10
2017-09-11T12:16:29.144Z,67.90
2017-09-11T12:18:56.755Z,68.60
2017-09-11T12:21:24.362Z,67.20
2017-09-11T12:23:51.988Z,67.00
2017-09-11T12:26:19.600Z,67.50
2017-09-11T12:28:48.438Z,63.90
2017-09-11T12:31:16.457Z,63.90
2017-09-11T12:33:44.845Z,66.40
2017-09-11T12:36:13.227Z,66.60
2017-09-11T12:38:41.613Z,67.80
2017-09-11T12:41:09.996Z,68.00
2017-09-11T12:43:37.616Z,68.00
2017-09-11T12:46:05.219Z,68.20
2017-09-11T12:48:32.848Z,67.70
2017-09-11T12:51:00.491Z,67.40
2017-09-11T12:53:28.103Z,67.40
2017-09-11T12:55:55.706Z,66.20
2017-09-11T12:58:23.332Z,66.00
2017-09-11T13:00:51.372Z,64.20
2017-09-11T13:03:19.732Z,64.10
2017-09-11T13:05:47.350Z,64.10
2017-09-11T13:08:14.993Z,63.20
2017-09-11T13:10:42.637Z,64.10
2017-09-11T13:13:11.000Z,61.50
2017-09-11T13:15:38.611Z,61.50
2017-09-11T13:18:07.476Z,61.50
2017-09-11T13:20:35.114Z,61.70
2017-09-11T13:23:03.475Z,62.50
2017-09-11T13:25:31.305Z,62.30
2017-09-11T13:27:59.739Z,60.40
2017-09-11T13:30:27.369Z,60.30
2017-09-11T13:32:54.960Z,59.00
2017-09-11T13:35:22.593Z,60.60
2017-09-11T13:37:50.186Z,60.30
2017-09-11T13:40:18.554Z,60.00
2017-09-11T13:42:46.177Z,60.00
2017-09-11T13:45:13.830Z,60.30
2017-09-11T13:47:41.456Z,60.10
2017-09-11T13:50:09.852Z,58.80
2017-09-11T13:52:37.456Z,58.70
2017-09-11T13:55:05.050Z,56.60
2017-09-11T13:57:33.449Z,58.30
2017-09-11T14:00:01.817Z,58.40
2017-09-11T14:02:30.204Z,56.80
2017-09-11T14:04:57.804Z,56.70
2017-09-11T14:07:25.441Z,55.90
2017-09-11T14:09:53.045Z,57.00
2017-09-11T14:12:20.668Z,53.60
2017-09-11T14:14:48.278Z,54.30
2017-09-11T14:17:15.902Z,53.20
2017-09-11T14:19:43.514Z,54.50
2017-09-11T14:22:11.927Z,52.50
2017-09-11T14:24:39.933Z,52.50
2017-09-11T14:27:07.539Z,54.30
2017-09-11T14:29:35.898Z,53.80
2017-09-11T14:32:03.519Z,53.80
2017-09-11T14:34:31.108Z,53.80
2017-09-11T14:36:59.521Z,55.50
2017-09-11T14:39:27.115Z,55.50
2017-09-11T14:41:55.898Z,53.50
2017-09-11T14:44:23.717Z,56.00
2017-09-11T14:46:52.104Z,55.80
2017-09-11T14:49:20.486Z,55.70
2017-09-11T14:51:48.876Z,56.00
2017-09-11T14:54:16.519Z,55.90
2017-09-11T14:56:45.034Z,57.20
2017-09-11T14:59:12.772Z,57.20
2017-09-11T15:01:40.507Z,61.20
2017-09-11T15:04:08.120Z,62.20
2017-09-11T15:06:35.752Z,61.30
2017-09-11T15:09:04.132Z,59.40
2017-09-11T15:11:32.484Z,57.90
2017-09-11T15:14:00.112Z,57.90
2017-09-11T15:16:27.717Z,59.50
2017-09-11T15:18:55.354Z,60.10
2017-09-11T15:21:22.944Z,57.20
2017-09-11T15:23:50.560Z,59.60
2017-09-11T15:26:18.166Z,58.80
2017-09-11T15:28:46.554Z,58.90
2017-09-11T15:31:15.658Z,56.70
2017-09-11T15:33:44.057Z,57.10
2017-09-11T15:36:11.653Z,57.10
2017-09-11T15:38:39.263Z,56.60
2017-09-11T15:41:06.864Z,56.10
2017-09-11T15:43:34.485Z,56.80
2017-09-11T15:46:02.092Z,56.60
2017-09-11T15:48:29.700Z,56.20
2017-09-11T15:50:57.320Z,57.00
2017-09-11T15:53:24.946Z,56.40
2017-09-11T15:55:52.818Z,56.10
2017-09-11T15:58:20.471Z,56.80
2017-09-11T16:00:48.087Z,56.60
2017-09-11T16:03:15.682Z,57.60
2017-09-11T16:05:43.696Z,57.70
2017-09-11T16:08:12.086Z,58.10
2017-09-11T16:10:39.695Z,58.70
2017-09-11T16:13:07.298Z,58.80
2017-09-11T16:15:34.939Z,58.20
2017-09-11T16:18:02.539Z,58.10
2017-09-11T16:20:30.174Z,58.50
2017-09-11T16:23:04.926Z,58.50
2017-09-11T16:25:32.581Z,58.90
2017-09-11T16:28:00.940Z,59.20
2017-09-11T16:30:28.568Z,59.20
2017-09-11T16:32:56.189Z,59.60
2017-09-11T16:35:23.821Z,59.20
2017-09-11T16:37:51.416Z,59.90
2017-09-11T16:40:19.812Z,59.80
2017-09-11T16:42:48.174Z,60.40
2017-09-11T16:45:15.805Z,60.40
2017-09-11T16:47:43.401Z,59.50
2017-09-11T16:50:10.992Z,58.50
2017-09-11T16:52:38.612Z,60.40
2017-09-11T16:55:06.226Z,58.70
2017-09-11T16:57:33.849Z,58.70
2017-09-11T17:00:01.461Z,56.70
2017-09-11T17:02:30.202Z,55.90
2017-09-11T17:04:58.032Z,56.40
2017-09-11T17:07:25.668Z,56.40
2017-09-11T17:09:53.274Z,56.80
2017-09-11T17:12:20.901Z,56.30
2017-09-11T17:14:48.489Z,57.20
2017-09-11T17:17:16.111Z,56.70
2017-09-11T17:19:43.696Z,56.00
2017-09-11T17:22:11.317Z,56.00
2017-09-11T17:24:38.920Z,55.20
2017-09-11T17:27:06.537Z,55.30
2017-09-11T17:29:34.146Z,55.80
2017-09-11T17:32:01.785Z,55.70
2017-09-11T17:34:29.365Z,57.10
2017-09-11T17:36:56.990Z,57.60
2017-09-11T17:39:25.018Z,59.00
2017-09-11T17:41:53.334Z,58.50
2017-09-11T17:44:20.960Z,59.10
2017-09-11T17:46:49.370Z,60.60
2017-09-11T17:49:16.983Z,60.40
2017-09-11T17:51:44.582Z,60.60
2017-09-11T17:54:12.209Z,61.30
2017-09-11T17:56:39.839Z,61.80
2017-09-11T17:59:07.452Z,59.90
2017-09-11T18:01:35.823Z,59.40
2017-09-11T18:04:03.429Z,59.30
2017-09-11T18:06:31.024Z,60.00
2017-09-11T18:08:58.660Z,59.90
2017-09-11T18:11:26.264Z,58.90
2017-09-11T18:13:53.906Z,59.60
2017-09-11T18:16:21.495Z,58.70
2017-09-11T18:18:49.156Z,58.60
2017-09-11T18:21:17.515Z,58.90
2017-09-11T18:23:45.123Z,58.90
2017-09-11T18:26:12.725Z,59.30
2017-09-11T18:28:40.350Z,58.30
2017-09-11T18:31:07.951Z,58.50
2017-09-11T18:33:35.541Z,58.50
2017-09-11T18:36:03.190Z,59.10
2017-09-11T18:38:30.794Z,58.90
2017-09-11T18:40:58.411Z,58.80
2017-09-11T18:43:26.816Z,59.50
2017-09-11T18:45:55.182Z,59.60
2017-09-11T18:48:23.544Z,59.50
2017-09-11T18:50:51.170Z,59.50
2017-09-11T18:53:18.764Z,60.00
2017-09-11T18:55:46.390Z,59.70
2017-09-11T18:58:14.001Z,59.30
2017-09-11T19:00:42.375Z,59.90
2017-09-11T19:03:10.733Z,60.10
2017-09-11T19:05:38.393Z,60.00
2017-09-11T19:08:05.995Z,60.00
2017-09-11T19:10:33.611Z,60.20
2017-09-11T19:13:01.208Z,59.20
2017-09-11T19:15:29.593Z,60.00
2017-09-11T19:17:57.184Z,60.00
2017-09-11T19:20:24.794Z,60.70
2017-09-11T19:22:53.157Z,60.40
2017-09-11T19:25:20.789Z,60.30
2017-09-11T19:27:48.377Z,60.80
2017-09-11T19:30:16.001Z,60.60
2017-09-11T19:32:43.611Z,59.90
2017-09-11T19:35:11.206Z,60.20
2017-09-11T19:37:38.827Z,60.00
2017-09-11T19:40:06.439Z,60.70
2017-09-11T19:42:34.081Z,60.60
2017-09-11T19:45:01.677Z,60.10
2017-09-11T19:47:29.297Z,60.20
2017-09-11T19:49:57.671Z,60.00
2017-09-11T19:52:26.091Z,59.80
2017-09-11T19:54:53.688Z,59.80
2017-09-11T19:57:22.108Z,60.80
2017-09-11T19:59:49.703Z,60.80
2017-09-11T20:02:17.329Z,60.70
2017-09-11T20:04:44.919Z,60.50
2017-09-11T20:07:12.544Z,60.60
2017-09-11T20:09:40.132Z,61.00
2017-09-11T20:12:07.797Z,61.50
2017-09-11T20:14:35.396Z,60.80
2017-09-11T20:17:03.018Z,60.10
2017-09-11T20:19:30.624Z,60.80
2017-09-11T20:21:59.021Z,61.10
2017-09-11T20:24:27.375Z,61.50
2017-09-11T20:26:55.018Z,61.50
2017-09-11T20:29:22.604Z,60.90
2017-09-11T20:31:51.001Z,61.60
2017-09-11T20:34:18.601Z,61.50
2017-09-11T20:36:46.222Z,61.30
2017-09-11T20:39:14.589Z,61.70
2017-09-11T20:41:42.949Z,61.80
2017-09-11T20:44:10.572Z,61.70
2017-09-11T20:46:38.179Z,61.10
2017-09-11T20:49:05.788Z,61.20
2017-09-11T20:51:33.376Z,60.90
2017-09-11T20:54:00.984Z,61.10
2017-09-11T20:56:28.582Z,60.90
2017-09-11T20:58:56.205Z,60.80
2017-09-11T21:01:23.804Z,60.60
2017-09-11T21:03:51.433Z,61.10
2017-09-11T21:06:19.045Z,61.30
2017-09-11T21:08:46.670Z,62.20
2017-09-11T21:11:14.308Z,62.20
2017-09-11T21:13:42.703Z,62.30
2017-09-11T21:16:10.303Z,62.30
2017-09-11T21:18:37.895Z,63.30
2017-09-11T21:21:06.311Z,63.00
2017-09-11T21:23:33.915Z,63.00
2017-09-11T21:26:01.532Z,63.20
2017-09-11T21:28:29.120Z,62.60
2017-09-11T21:30:56.750Z,63.30
2017-09-11T21:33:24.338Z,62.80
2017-09-11T21:35:51.968Z,62.20
2017-09-11T21:38:19.904Z,62.30
2017-09-11T21:40:48.283Z,63.10
2017-09-11T21:43:16.650Z,62.70
2017-09-11T21:45:44.283Z,62.70
2017-09-11T21:48:11.877Z,63.40
2017-09-11T21:50:39.507Z,63.70
2017-09-11T21:53:07.109Z,63.00
2017-09-11T21:55:35.488Z,63.00
2017-09-11T21:58:03.855Z,63.30
2017-09-11T22:00:32.280Z,63.60
2017-09-11T22:02:59.900Z,63.50
2017-09-11T22:05:28.279Z,63.50
2017-09-11T22:07:56.645Z,63.60
2017-09-11T22:10:24.247Z,63.50
2017-09-11T22:12:51.852Z,63.80
2017-09-11T22:15:19.471Z,63.40
2017-09-11T22:17:47.102Z,63.60
2017-09-11T22:20:15.464Z,64.60
2017-09-11T22:22:43.096Z,64.60
2017-09-11T22:25:10.713Z,64.40
2017-09-11T22:27:39.114Z,63.80
2017-09-11T22:30:06.713Z,63.90
2017-09-11T22:32:34.329Z,64.20
2017-09-11T22:35:01.926Z,64.10
2017-09-11T22:37:29.564Z,64.20
2017-09-11T22:39:57.161Z,64.80
2017-09-11T22:42:24.837Z,64.60
2017-09-11T22:44:52.423Z,64.30
2017-09-11T22:47:20.800Z,64.70
2017-09-11T22:49:48.440Z,64.70
2017-09-11T22:52:16.836Z,64.60
2017-09-11T22:54:45.237Z,64.70
2017-09-11T22:57:12.864Z,64.70
2017-09-11T22:59:40.482Z,65.00
2017-09-11T23:02:08.096Z,65.10
2017-09-11T23:04:36.461Z,64.70
2017-09-11T23:07:04.091Z,64.70
2017-09-11T23:09:31.716Z,65.10
2017-09-11T23:12:00.106Z,65.20
2017-09-11T23:14:27.741Z,65.20
2017-09-11T23:16:56.111Z,64.90
2017-09-11T23:19:23.728Z,64.80
2017-09-11T23:21:52.343Z,65.20
2017-09-11T23:24:19.963Z,66.10
2017-09-11T23:26:47.574Z,65.20
2017-09-11T23:29:15.196Z,65.40
2017-09-11T23:31:42.782Z,65.00
2017-09-11T23:34:10.387Z,64.30
2017-09-11T23:36:37.992Z,64.70
2017-09-11T23:39:05.649Z,64.80
2017-09-11T23:41:33.304Z,64.40
2017-09-11T23:44:00.934Z,64.30
2017-09-11T23:46:28.537Z,64.70
2017-09-11T23:48:56.164Z,64.80
2017-09-11T23:51:23.772Z,64.80
2017-09-11T23:53:51.396Z,65.10
2017-09-11T23:56:19.025Z,65.30
2017-09-11T23:58:47.416Z,66.40
